Time,TemperatureF,DewpointF,PressureIn,WindDirection,WindDirectionDegrees,WindSpeedMPH,WindSpeedGustMPH,Humidity,HourlyPrecipIn,Conditions,Clouds,dailyrainin,SoftwareType,DateUTC
2013-03-21 00:00:00,37.7,27.4,29.70,NW,310,11.0,15.0,66,0.00,,,0.00,Wunderground v.1.15,2013-03-21 04:00:00,
2013-03-21 00:05:00,37.5,27.2,29.69,NW,318,10.0,15.0,66,0.00,,,0.00,Wunderground v.1.15,2013-03-21 04:05:00,
2013-03-21 00:10:00,37.3,26.6,29.69,NW,324,10.0,10.0,65,0.00,,,0.00,Wunderground v.1.15,2013-03-21 04:10:00,
2013-03-21 00:15:00,37.1,26.4,29.69,NE,43,9.0,13.0,65,0.00,,,0.00,Wunderground v.1.15,2013-03-21 04:15:00,
2013-03-21 00:25:00,36.9,25.9,29.69,NNW,327,10.0,11.0,64,0.00,,,0.00,Wunderground v.1.15,2013-03-21 04:25:00,
2013-03-21 00:35:00,36.8,25.0,29.68,North,349,11.0,11.0,62,0.00,,,0.00,Wunderground v.1.15,2013-03-21 04:35:00,
2013-03-21 00:40:00,36.8,24.6,29.68,NNW,342,11.0,11.0,61,0.00,,,0.00,Wunderground v.1.15,2013-03-21 04:40:00,
2013-03-21 00:45:00,36.8,24.2,29.68,NNE,19,11.0,11.0,60,0.00,,,0.00,Wunderground v.1.15,2013-03-21 04:45:00,
2013-03-21 00:55:00,36.5,23.9,29.68,NW,322,11.0,12.0,60,0.00,,,0.00,Wunderground v.1.15,2013-03-21 04:55:00,
2013-03-21 01:00:00,36.3,23.7,29.68,North,5,11.0,12.0,60,0.00,,,0.00,Wunderground v.1.15,2013-03-21 05:00:00,
2013-03-21 01:05:00,36.1,23.5,29.67,NW,320,9.0,12.0,60,0.00,,,0.00,Wunderground v.1.15,2013-03-21 05:05:00,
2013-03-21 01:10:00,35.9,23.4,29.67,NNW,341,6.0,6.0,60,0.00,,,0.00,Wunderground v.1.15,2013-03-21 05:10:00,
2013-03-21 01:20:00,35.6,23.1,29.67,North,360,8.0,8.0,60,0.00,,,0.00,Wunderground v.1.15,2013-03-21 05:20:00,
2013-03-21 01:25:00,35.5,23.4,29.67,NW,322,7.0,8.0,61,0.00,,,0.00,Wunderground v.1.15,2013-03-21 05:25:00,
2013-03-21 01:30:00,35.3,23.2,29.68,NNW,330,6.0,6.0,61,0.00,,,0.00,Wunderground v.1.15,2013-03-21 05:30:00,
2013-03-21 01:35:00,35.2,23.5,29.68,NNW,338,5.0,6.0,62,0.00,,,0.00,Wunderground v.1.15,2013-03-21 05:35:00,
2013-03-21 01:45:00,35.1,23.4,29.68,North,351,4.0,4.0,62,0.00,,,0.00,Wunderground v.1.15,2013-03-21 05:45:00,
2013-03-21 01:55:00,34.9,23.6,29.68,NW,311,4.0,16.0,63,0.00,,,0.00,Wunderground v.1.15,2013-03-21 05:55:00,
2013-03-21 02:00:00,34.9,23.2,29.67,North,353,7.0,7.0,62,0.00,,,0.00,Wunderground v.1.15,2013-03-21 06:00:00,
2013-03-21 02:10:00,34.8,23.1,29.67,NNW,336,5.0,5.0,62,0.00,,,0.00,Wunderground v.1.15,2013-03-21 06:10:00,
2013-03-21 02:15:00,34.7,23.0,29.67,NNW,334,5.0,6.0,62,0.00,,,0.00,Wunderground v.1.15,2013-03-21 06:15:00,
2013-03-21 02:20:00,34.7,23.0,29.66,NNW,343,7.0,7.0,62,0.00,,,0.00,Wunderground v.1.15,2013-03-21 06:20:00,
2013-03-21 02:25:00,34.6,22.9,29.66,NNW,336,9.0,12.0,62,0.00,,,0.00,Wunderground v.1.15,2013-03-21 06:25:00,
2013-03-21 02:30:00,34.4,23.1,29.66,North,349,9.0,11.0,63,0.00,,,0.00,Wunderground v.1.15,2013-03-21 06:30:00,
2013-03-21 02:40:00,34.4,22.7,29.65,NNW,335,8.0,8.0,62,0.00,,,0.00,Wunderground v.1.15,2013-03-21 06:40:00,
2013-03-21 02:45:00,34.4,22.7,29.66,NNW,327,7.0,8.0,62,0.00,,,0.00,Wunderground v.1.15,2013-03-21 06:45:00,
2013-03-21 02:55:00,34.0,22.3,29.65,NW,314,8.0,11.0,62,0.00,,,0.00,Wunderground v.1.15,2013-03-21 06:55:00,
2013-03-21 03:00:00,33.8,21.8,29.66,NW,326,10.0,10.0,61,0.00,,,0.00,Wunderground v.1.15,2013-03-21 07:00:00,
2013-03-21 03:10:00,33.6,21.6,29.65,NNW,327,9.0,9.0,61,0.00,,,0.00,Wunderground v.1.15,2013-03-21 07:10:00,
2013-03-21 03:15:00,33.5,21.5,29.65,NNW,330,6.0,9.0,61,0.00,,,0.00,Wunderground v.1.15,2013-03-21 07:15:00,
2013-03-21 03:25:00,33.0,21.8,29.64,NNW,330,4.0,6.0,63,0.00,,,0.00,Wunderground v.1.15,2013-03-21 07:25:00,
2013-03-21 03:30:00,32.9,21.3,29.64,NNW,345,6.0,6.0,62,0.00,,,0.00,Wunderground v.1.15,2013-03-21 07:30:00,
2013-03-21 03:40:00,32.9,20.9,29.63,NW,324,9.0,16.0,61,0.00,,,0.00,Wunderground v.1.15,2013-03-21 07:40:00,
2013-03-21 03:45:00,32.9,20.9,29.63,WNW,300,11.0,16.0,61,0.00,,,0.00,Wunderground v.1.15,2013-03-21 07:45:00,
2013-03-21 03:55:00,32.7,19.9,29.63,NW,308,11.0,12.0,59,0.00,,,0.00,Wunderground v.1.15,2013-03-21 07:55:00,
2013-03-21 04:00:00,32.5,20.1,29.63,North,351,11.0,11.0,60,0.00,,,0.00,Wunderground v.1.15,2013-03-21 08:00:00,
2013-03-21 04:05:00,32.4,19.7,29.64,NNW,347,10.0,11.0,59,0.00,,,0.00,Wunderground v.1.15,2013-03-21 08:05:00,
2013-03-21 04:10:00,32.1,19.0,29.64,NNW,334,9.0,9.0,58,0.00,,,0.00,Wunderground v.1.15,2013-03-21 08:10:00,
2013-03-21 04:15:00,32.0,18.9,29.64,North,360,9.0,9.0,58,0.00,,,0.00,Wunderground v.1.15,2013-03-21 08:15:00,
2013-03-21 04:25:00,31.5,18.4,29.63,NNW,347,9.0,13.0,58,0.00,,,0.00,Wunderground v.1.15,2013-03-21 08:25:00,
2013-03-21 04:30:00,31.3,18.2,29.64,NNW,345,9.0,10.0,58,0.00,,,0.00,Wunderground v.1.15,2013-03-21 08:30:00,
2013-03-21 04:35:00,31.1,18.0,29.64,NW,314,10.0,11.0,58,0.00,,,0.00,Wunderground v.1.15,2013-03-21 08:35:00,
2013-03-21 04:40:00,30.9,17.8,29.63,NNW,328,10.0,16.0,58,0.00,,,0.00,Wunderground v.1.15,2013-03-21 08:40:00,
2013-03-21 04:50:00,30.6,18.0,29.63,NW,313,9.0,9.0,59,0.00,,,0.00,Wunderground v.1.15,2013-03-21 08:50:00,
2013-03-21 04:55:00,30.4,17.8,29.63,NNW,346,10.0,12.0,59,0.00,,,0.00,Wunderground v.1.15,2013-03-21 08:55:00,
2013-03-21 05:00:00,30.2,17.2,29.63,NW,326,9.0,9.0,58,0.00,,,0.00,Wunderground v.1.15,2013-03-21 09:00:00,
2013-03-21 05:10:00,30.0,17.0,29.63,NNW,348,8.0,9.0,58,0.00,,,0.00,Wunderground v.1.15,2013-03-21 09:10:00,
2013-03-21 05:15:00,29.8,16.8,29.63,NNW,347,10.0,10.0,58,0.00,,,0.00,Wunderground v.1.15,2013-03-21 09:15:00,
2013-03-21 05:25:00,29.5,16.1,29.63,NW,322,8.0,9.0,57,0.00,,,0.00,Wunderground v.1.15,2013-03-21 09:25:00,
2013-03-21 05:30:00,29.3,15.5,29.63,NNW,345,10.0,15.0,56,0.00,,,0.00,Wunderground v.1.15,2013-03-21 09:30:00,
2013-03-21 05:40:00,29.0,14.4,29.64,NNW,333,11.0,11.0,54,0.00,,,0.00,Wunderground v.1.15,2013-03-21 09:40:00,
2013-03-21 05:45:00,28.8,14.6,29.64,NW,318,11.0,12.0,55,0.00,,,0.00,Wunderground v.1.15,2013-03-21 09:45:00,
2013-03-21 05:50:00,28.7,14.1,29.64,North,360,10.0,12.0,54,0.00,,,0.00,Wunderground v.1.15,2013-03-21 09:50:00,
2013-03-21 06:00:00,28.3,14.2,29.64,NW,309,8.0,8.0,55,0.00,,,0.00,Wunderground v.1.15,2013-03-21 10:00:00,
2013-03-21 06:10:00,27.9,14.2,29.64,NNW,330,12.0,16.0,56,0.00,,,0.00,Wunderground v.1.15,2013-03-21 10:10:00,
2013-03-21 06:15:00,27.7,14.0,29.64,NNW,334,11.0,16.0,56,0.00,,,0.00,Wunderground v.1.15,2013-03-21 10:15:00,
2013-03-21 06:25:00,27.4,13.3,29.65,NNW,332,7.0,17.0,55,0.00,,,0.00,Wunderground v.1.15,2013-03-21 10:25:00,
2013-03-21 06:30:00,27.2,13.1,29.65,NNW,334,9.0,9.0,55,0.00,,,0.00,Wunderground v.1.15,2013-03-21 10:30:00,
2013-03-21 06:35:00,27.1,12.6,29.65,NW,307,11.0,13.0,54,0.00,,,0.00,Wunderground v.1.15,2013-03-21 10:35:00,
2013-03-21 06:40:00,27.0,12.5,29.65,NW,310,10.0,10.0,54,0.00,,,0.00,Wunderground v.1.15,2013-03-21 10:40:00,
2013-03-21 06:45:00,27.0,12.1,29.65,NW,326,10.0,10.0,53,0.00,,,0.00,Wunderground v.1.15,2013-03-21 10:45:00,
2013-03-21 06:55:00,26.7,11.8,29.65,North,360,9.0,11.0,53,0.00,,,0.00,Wunderground v.1.15,2013-03-21 10:55:00,
2013-03-21 07:05:00,26.5,10.3,29.65,North,351,7.0,9.0,50,0.00,,,0.00,Wunderground v.1.15,2013-03-21 11:05:00,
2013-03-21 07:10:00,26.5,10.3,29.65,NNW,330,7.0,7.0,50,0.00,,,0.00,Wunderground v.1.15,2013-03-21 11:10:00,
2013-03-21 07:15:00,26.5,9.9,29.66,North,349,9.0,9.0,49,0.00,,,0.00,Wunderground v.1.15,2013-03-21 11:15:00,
2013-03-21 07:25:00,26.3,10.2,29.66,North,10,6.0,10.0,50,0.00,,,0.00,Wunderground v.1.15,2013-03-21 11:25:00,
2013-03-21 07:31:00,26.2,9.6,29.66,NNW,343,8.0,8.0,49,0.00,,,0.00,Wunderground v.1.15,2013-03-21 11:31:00,
2013-03-21 07:40:00,26.0,9.9,29.66,NNW,347,10.0,10.0,50,0.00,,,0.00,Wunderground v.1.15,2013-03-21 11:40:00,
2013-03-21 07:46:00,25.9,9.8,29.66,NW,318,10.0,10.0,50,0.00,,,0.00,Wunderground v.1.15,2013-03-21 11:46:00,
2013-03-21 07:55:00,25.7,9.6,29.67,NNW,335,8.0,9.0,50,0.00,,,0.00,Wunderground v.1.15,2013-03-21 11:55:00,
2013-03-21 08:01:00,25.6,9.5,29.67,North,351,6.0,13.0,50,0.00,,,0.00,Wunderground v.1.15,2013-03-21 12:01:00,
2013-03-21 08:10:00,25.6,9.1,29.67,NNW,338,10.0,13.0,49,0.00,,,0.00,Wunderground v.1.15,2013-03-21 12:10:00,
2013-03-21 08:15:00,25.6,9.1,29.67,NNW,340,9.0,19.0,49,0.00,,,0.00,Wunderground v.1.15,2013-03-21 12:15:00,
2013-03-21 08:25:00,25.8,8.8,29.67,North,5,8.0,8.0,48,0.00,,,0.00,Wunderground v.1.15,2013-03-21 12:25:00,
2013-03-21 08:30:00,26.1,8.6,29.67,North,354,8.0,12.0,47,0.00,,,0.00,Wunderground v.1.15,2013-03-21 12:30:00,
2013-03-21 08:40:00,26.5,7.5,29.67,North,5,9.0,10.0,44,0.00,,,0.00,Wunderground v.1.15,2013-03-21 12:40:00,
2013-03-21 08:45:00,26.7,6.6,29.68,NNW,345,8.0,10.0,42,0.00,,,0.00,Wunderground v.1.15,2013-03-21 12:45:00,
2013-03-21 08:55:00,27.1,6.5,29.68,North,354,8.0,12.0,41,0.00,,,0.00,Wunderground v.1.15,2013-03-21 12:55:00,
2013-03-21 09:00:00,27.3,6.7,29.68,NW,316,8.0,8.0,41,0.00,,,0.00,Wunderground v.1.15,2013-03-21 13:00:00,
2013-03-21 09:10:00,27.7,6.5,29.68,North,355,7.0,11.0,40,0.00,,,0.00,Wunderground v.1.15,2013-03-21 13:10:00,
2013-03-21 09:15:00,27.8,6.0,29.68,North,352,6.0,11.0,39,0.00,,,0.00,Wunderground v.1.15,2013-03-21 13:15:00,
2013-03-21 09:25:00,28.3,6.5,29.68,WNW,297,8.0,13.0,39,0.00,,,0.00,Wunderground v.1.15,2013-03-21 13:25:00,
2013-03-21 09:30:00,28.7,7.4,29.69,NW,320,7.0,13.0,40,0.00,,,0.00,Wunderground v.1.15,2013-03-21 13:30:00,
2013-03-21 09:40:00,29.0,6.5,29.69,North,353,9.0,9.0,38,0.00,,,0.00,Wunderground v.1.15,2013-03-21 13:40:00,
2013-03-21 09:45:00,29.2,6.7,29.69,WNW,286,7.0,9.0,38,0.00,,,0.00,Wunderground v.1.15,2013-03-21 13:45:00,
2013-03-21 09:50:00,29.2,6.7,29.69,WNW,302,6.0,6.0,38,0.00,,,0.00,Wunderground v.1.15,2013-03-21 13:50:00,
2013-03-21 09:55:00,29.5,7.0,29.69,WNW,293,6.0,6.0,38,0.00,,,0.00,Wunderground v.1.15,2013-03-21 13:55:00,
2013-03-21 10:00:00,29.4,6.9,29.70,WNW,291,6.0,6.0,38,0.00,,,0.00,Wunderground v.1.15,2013-03-21 14:00:00,
2013-03-21 10:10:00,30.5,8.4,29.71,WNW,293,6.0,6.0,39,0.00,,,0.00,Wunderground v.1.15,2013-03-21 14:10:00,
2013-03-21 10:15:00,30.2,8.2,29.71,WNW,297,7.0,10.0,39,0.00,,,0.00,Wunderground v.1.15,2013-03-21 14:15:00,
2013-03-21 10:25:00,31.2,8.5,29.71,NW,319,6.0,11.0,38,0.00,,,0.00,Wunderground v.1.15,2013-03-21 14:25:00,
2013-03-21 10:30:00,31.5,8.8,29.70,WNW,284,5.0,5.0,38,0.00,,,0.00,Wunderground v.1.15,2013-03-21 14:30:00,
2013-03-21 10:40:00,31.5,8.2,29.70,NW,307,6.0,6.0,37,0.00,,,0.00,Wunderground v.1.15,2013-03-21 14:40:00,
2013-03-21 10:45:00,31.8,8.4,29.70,WNW,301,6.0,6.0,37,0.00,,,0.00,Wunderground v.1.15,2013-03-21 14:45:00,
2013-03-21 10:55:00,32.2,8.8,29.71,West,264,8.0,8.0,37,0.00,,,0.00,Wunderground v.1.15,2013-03-21 14:55:00,
2013-03-21 11:00:00,32.6,9.8,29.71,WNW,303,9.0,9.0,38,0.00,,,0.00,Wunderground v.1.15,2013-03-21 15:00:00,
2013-03-21 11:05:00,33.2,9.7,29.71,WNW,293,8.0,10.0,37,0.00,,,0.00,Wunderground v.1.15,2013-03-21 15:05:00,
2013-03-21 11:10:00,33.3,9.8,29.71,NW,315,7.0,7.0,37,0.00,,,0.00,Wunderground v.1.15,2013-03-21 15:10:00,
2013-03-21 11:20:00,33.3,7.9,29.71,WNW,297,6.0,6.0,34,0.00,,,0.00,Wunderground v.1.15,2013-03-21 15:20:00,
2013-03-21 11:25:00,33.7,8.3,29.71,WNW,295,8.0,8.0,34,0.00,,,0.00,Wunderground v.1.15,2013-03-21 15:25:00,
2013-03-21 11:30:00,34.2,8.0,29.71,WNW,292,10.0,11.0,33,0.00,,,0.00,Wunderground v.1.15,2013-03-21 15:30:00,
2013-03-21 11:40:00,35.0,8.7,29.71,NW,310,10.0,10.0,33,0.00,,,0.00,Wunderground v.1.15,2013-03-21 15:40:00,
2013-03-21 11:45:00,34.7,9.8,29.71,WNW,286,10.0,10.0,35,0.00,,,0.00,Wunderground v.1.15,2013-03-21 15:45:00,
2013-03-21 11:55:00,35.4,9.8,29.70,NW,326,8.0,10.0,34,0.00,,,0.00,Wunderground v.1.15,2013-03-21 15:55:00,
2013-03-21 12:00:00,35.3,10.3,29.70,NW,326,9.0,9.0,35,0.00,,,0.00,Wunderground v.1.15,2013-03-21 16:00:00,
2013-03-21 12:10:00,35.5,9.9,29.70,WNW,298,7.0,8.0,34,0.00,,,0.00,Wunderground v.1.15,2013-03-21 16:10:00,
2013-03-21 12:15:00,35.9,10.2,29.70,NW,323,8.0,9.0,34,0.00,,,0.00,Wunderground v.1.15,2013-03-21 16:15:00,
2013-03-21 12:25:00,35.7,9.4,29.71,WNW,291,10.0,11.0,33,0.00,,,0.00,Wunderground v.1.15,2013-03-21 16:25:00,
2013-03-21 12:30:00,35.7,8.0,29.71,WNW,284,10.0,12.0,31,0.00,,,0.00,Wunderground v.1.15,2013-03-21 16:30:00,
2013-03-21 12:40:00,36.4,8.6,29.71,WNW,295,11.0,12.0,31,0.00,,,0.00,Wunderground v.1.15,2013-03-21 16:40:00,
2013-03-21 12:50:00,36.7,8.9,29.71,WNW,298,13.0,14.0,31,0.00,,,0.00,Wunderground v.1.15,2013-03-21 16:50:00,
2013-03-21 12:55:00,36.9,9.7,29.71,NW,324,12.0,14.0,32,0.00,,,0.00,Wunderground v.1.15,2013-03-21 16:55:00,
2013-03-21 13:00:00,37.1,9.9,29.71,NW,325,11.0,11.0,32,0.00,,,0.00,Wunderground v.1.15,2013-03-21 17:00:00,
2013-03-21 13:10:00,37.3,9.4,29.71,NNW,340,10.0,10.0,31,0.00,,,0.00,Wunderground v.1.15,2013-03-21 17:10:00,
2013-03-21 13:20:00,37.5,10.3,29.71,NW,312,11.0,11.0,32,0.00,,,0.00,Wunderground v.1.15,2013-03-21 17:20:00,
2013-03-21 13:25:00,37.6,11.7,29.70,WNW,284,11.0,11.0,34,0.00,,,0.00,Wunderground v.1.15,2013-03-21 17:25:00,
2013-03-21 13:30:00,37.4,10.2,29.71,NW,312,12.0,12.0,32,0.00,,,0.00,Wunderground v.1.15,2013-03-21 17:30:00,
2013-03-21 13:40:00,37.8,10.5,29.70,NW,314,13.0,13.0,32,0.00,,,0.00,Wunderground v.1.15,2013-03-21 17:40:00,
2013-03-21 13:50:00,38.6,11.9,29.70,NW,311,11.0,11.0,33,0.00,,,0.00,Wunderground v.1.15,2013-03-21 17:50:00,
2013-03-21 13:55:00,38.8,11.4,29.69,NW,312,11.0,14.0,32,0.00,,,0.00,Wunderground v.1.15,2013-03-21 17:55:00,
2013-03-21 14:00:00,38.3,11.0,29.70,WNW,289,13.0,17.0,32,0.00,,,0.00,Wunderground v.1.15,2013-03-21 18:00:00,
2013-03-21 14:10:00,38.6,11.2,29.69,NW,326,13.0,20.0,32,0.00,,,0.00,Wunderground v.1.15,2013-03-21 18:10:00,
2013-03-21 14:15:00,38.7,11.3,29.69,West,266,13.0,20.0,32,0.00,,,0.00,Wunderground v.1.15,2013-03-21 18:15:00,
2013-03-21 14:20:00,38.4,10.3,29.69,WSW,250,12.0,17.0,31,0.00,,,0.00,Wunderground v.1.15,2013-03-21 18:20:00,
2013-03-21 14:30:00,39.7,12.2,29.69,WNW,303,12.0,12.0,32,0.00,,,0.00,Wunderground v.1.15,2013-03-21 18:30:00,
2013-03-21 14:35:00,39.2,11.8,29.68,WNW,301,11.0,12.0,32,0.00,,,0.00,Wunderground v.1.15,2013-03-21 18:35:00,
2013-03-21 14:45:00,39.0,12.3,29.68,WNW,303,12.0,13.0,33,0.00,,,0.00,Wunderground v.1.15,2013-03-21 18:45:00,
2013-03-21 14:50:00,39.2,11.8,29.68,NW,314,13.0,21.0,32,0.00,,,0.00,Wunderground v.1.15,2013-03-21 18:50:00,
2013-03-21 14:55:00,39.5,11.3,29.68,NW,324,14.0,21.0,31,0.00,,,0.00,Wunderground v.1.15,2013-03-21 18:55:00,
2013-03-21 15:05:00,39.5,10.6,29.68,NW,322,13.0,15.0,30,0.00,,,0.00,Wunderground v.1.15,2013-03-21 19:05:00,
2013-03-21 15:10:00,39.5,10.6,29.68,NNW,328,14.0,14.0,30,0.00,,,0.00,Wunderground v.1.15,2013-03-21 19:10:00,
2013-03-21 15:15:00,39.5,11.3,29.69,NW,322,14.0,14.0,31,0.00,,,0.00,Wunderground v.1.15,2013-03-21 19:15:00,
2013-03-21 15:25:00,39.6,12.1,29.68,North,360,13.0,14.0,32,0.00,,,0.00,Wunderground v.1.15,2013-03-21 19:25:00,
2013-03-21 15:30:00,40.1,11.1,29.68,North,10,12.0,12.0,30,0.00,,,0.00,Wunderground v.1.15,2013-03-21 19:30:00,
2013-03-21 15:35:00,40.0,11.8,29.69,NNW,340,13.0,20.0,31,0.00,,,0.00,Wunderground v.1.15,2013-03-21 19:35:00,
2013-03-21 15:45:00,40.1,11.1,29.68,North,351,14.0,14.0,30,0.00,,,0.00,Wunderground v.1.15,2013-03-21 19:45:00,
2013-03-21 15:55:00,40.7,12.4,29.68,NW,305,14.0,15.0,31,0.00,,,0.00,Wunderground v.1.15,2013-03-21 19:55:00,
2013-03-21 16:00:00,41.0,14.1,29.68,NW,317,14.0,18.0,33,0.00,,,0.00,Wunderground v.1.15,2013-03-21 20:00:00,
2013-03-21 16:05:00,40.9,11.8,29.68,NW,311,14.0,18.0,30,0.00,,,0.00,Wunderground v.1.15,2013-03-21 20:05:00,
2013-03-21 16:15:00,40.8,10.9,29.69,NNW,328,12.0,12.0,29,0.00,,,0.00,Wunderground v.1.15,2013-03-21 20:15:00,
2013-03-21 16:25:00,41.0,11.9,29.69,NW,316,12.0,15.0,30,0.00,,,0.00,Wunderground v.1.15,2013-03-21 20:25:00,
2013-03-21 16:35:00,40.6,11.5,29.68,WNW,290,11.0,12.0,30,0.00,,,0.00,Wunderground v.1.15,2013-03-21 20:35:00,
2013-03-21 16:40:00,41.0,11.9,29.69,NNW,327,10.0,13.0,30,0.00,,,0.00,Wunderground v.1.15,2013-03-21 20:40:00,
2013-03-21 16:45:00,41.2,12.1,29.69,WNW,296,11.0,13.0,30,0.00,,,0.00,Wunderground v.1.15,2013-03-21 20:45:00,
2013-03-21 16:55:00,40.9,11.0,29.68,NW,318,14.0,22.0,29,0.00,,,0.00,Wunderground v.1.15,2013-03-21 20:55:00,
2013-03-21 17:00:00,40.7,11.6,29.68,WNW,295,13.0,13.0,30,0.00,,,0.00,Wunderground v.1.15,2013-03-21 21:00:00,
2013-03-21 17:05:00,40.7,10.9,29.69,NW,326,11.0,13.0,29,0.00,,,0.00,Wunderground v.1.15,2013-03-21 21:05:00,
2013-03-21 17:10:00,40.7,12.4,29.68,WNW,295,12.0,13.0,31,0.00,,,0.00,Wunderground v.1.15,2013-03-21 21:10:00,
2013-03-21 17:15:00,40.9,12.5,29.69,WNW,291,13.0,13.0,31,0.00,,,0.00,Wunderground v.1.15,2013-03-21 21:15:00,
2013-03-21 17:25:00,41.0,11.1,29.69,NNW,345,10.0,14.0,29,0.00,,,0.00,Wunderground v.1.15,2013-03-21 21:25:00,
2013-03-21 17:30:00,41.1,12.7,29.69,NNW,347,12.0,19.0,31,0.00,,,0.00,Wunderground v.1.15,2013-03-21 21:30:00,
2013-03-21 17:40:00,40.5,11.4,29.69,NW,319,12.0,12.0,30,0.00,,,0.00,Wunderground v.1.15,2013-03-21 21:40:00,
2013-03-21 17:45:00,40.6,11.5,29.69,North,360,7.0,12.0,30,0.00,,,0.00,Wunderground v.1.15,2013-03-21 21:45:00,
2013-03-21 17:51:00,41.0,11.1,29.69,NNW,341,8.0,10.0,29,0.00,,,0.00,Wunderground v.1.15,2013-03-21 21:51:00,
2013-03-21 18:00:00,40.7,10.9,29.68,NW,311,12.0,13.0,29,0.00,,,0.00,Wunderground v.1.15,2013-03-21 22:00:00,
2013-03-21 18:10:00,40.5,11.4,29.68,NW,307,11.0,11.0,30,0.00,,,0.00,Wunderground v.1.15,2013-03-21 22:10:00,
2013-03-21 18:15:00,40.2,11.2,29.69,WNW,303,12.0,12.0,30,0.00,,,0.00,Wunderground v.1.15,2013-03-21 22:15:00,
2013-03-21 18:25:00,39.7,11.5,29.69,NW,309,11.0,13.0,31,0.00,,,0.00,Wunderground v.1.15,2013-03-21 22:25:00,
2013-03-21 18:35:00,39.4,11.2,29.69,WNW,297,10.0,10.0,31,0.00,,,0.00,Wunderground v.1.15,2013-03-21 22:35:00,
2013-03-21 18:40:00,39.3,11.1,29.69,NW,314,11.0,11.0,31,0.00,,,0.00,Wunderground v.1.15,2013-03-21 22:40:00,
2013-03-21 18:45:00,39.2,11.0,29.69,NNW,331,9.0,11.0,31,0.00,,,0.00,Wunderground v.1.15,2013-03-21 22:45:00,
2013-03-21 18:50:00,39.1,11.0,29.69,NW,322,8.0,9.0,31,0.00,,,0.00,Wunderground v.1.15,2013-03-21 22:50:00,
2013-03-21 19:00:00,38.9,11.5,29.69,NNW,330,10.0,10.0,32,0.00,,,0.00,Wunderground v.1.15,2013-03-21 23:00:00,
2013-03-21 19:10:00,38.6,11.2,29.69,WNW,289,9.0,9.0,32,0.00,,,0.00,Wunderground v.1.15,2013-03-21 23:10:00,
2013-03-21 19:15:00,38.4,11.1,29.70,NW,321,8.0,9.0,32,0.00,,,0.00,Wunderground v.1.15,2013-03-21 23:15:00,
2013-03-21 19:25:00,38.1,11.5,29.70,NW,309,7.0,7.0,33,0.00,,,0.00,Wunderground v.1.15,2013-03-21 23:25:00,
2013-03-21 19:30:00,37.8,10.5,29.70,NW,307,7.0,7.0,32,0.00,,,0.00,Wunderground v.1.15,2013-03-21 23:30:00,
2013-03-21 19:35:00,37.6,10.4,29.71,NW,316,6.0,7.0,32,0.00,,,0.00,Wunderground v.1.15,2013-03-21 23:35:00,
2013-03-21 19:40:00,37.3,10.8,29.71,NW,321,4.0,4.0,33,0.00,,,0.00,Wunderground v.1.15,2013-03-21 23:40:00,
2013-03-21 19:46:00,37.1,11.3,29.71,NNW,328,2.0,4.0,34,0.00,,,0.00,Wunderground v.1.15,2013-03-21 23:46:00,
2013-03-21 19:55:00,36.6,10.8,29.71,WNW,302,2.0,3.0,34,0.00,,,0.00,Wunderground v.1.15,2013-03-21 23:55:00,
2013-03-21 20:00:00,36.3,11.2,29.72,WNW,302,1.0,1.0,35,0.00,,,0.00,Wunderground v.1.15,2013-03-22 00:00:00,
2013-03-21 20:10:00,35.5,10.5,29.72,WNW,303,0.0,0.0,35,0.00,,,0.00,Wunderground v.1.15,2013-03-22 00:10:00,
2013-03-21 20:15:00,35.5,11.1,29.72,WNW,303,0.0,0.0,36,0.00,,,0.00,Wunderground v.1.15,2013-03-22 00:15:00,
2013-03-21 20:25:00,35.3,10.3,29.72,WNW,303,0.0,0.0,35,0.00,,,0.00,Wunderground v.1.15,2013-03-22 00:25:00,
2013-03-21 20:35:00,35.3,11.0,29.72,North,356,1.0,5.0,36,0.00,,,0.00,Wunderground v.1.15,2013-03-22 00:35:00,
2013-03-21 20:40:00,35.2,11.5,29.72,North,356,1.0,1.0,37,0.00,,,0.00,Wunderground v.1.15,2013-03-22 00:40:00,
2013-03-21 20:45:00,35.1,11.4,29.73,North,356,0.0,1.0,37,0.00,,,0.00,Wunderground v.1.15,2013-03-22 00:45:00,
2013-03-21 20:50:00,34.8,10.5,29.73,North,356,0.0,0.0,36,0.00,,,0.00,Wunderground v.1.15,2013-03-22 00:50:00,
2013-03-21 21:00:00,34.4,11.4,29.73,North,356,1.0,1.0,38,0.00,,,0.00,Wunderground v.1.15,2013-03-22 01:00:00,
2013-03-21 21:05:00,34.4,11.4,29.73,North,354,1.0,1.0,38,0.00,,,0.00,Wunderground v.1.15,2013-03-22 01:05:00,
2013-03-21 21:10:00,34.4,12.0,29.73,North,349,2.0,3.0,39,0.00,,,0.00,Wunderground v.1.15,2013-03-22 01:10:00,
2013-03-21 21:20:00,34.1,12.3,29.73,NNW,343,2.0,2.0,40,0.00,,,0.00,Wunderground v.1.15,2013-03-22 01:20:00,
2013-03-21 21:25:00,33.9,12.6,29.74,NNW,343,1.0,2.0,41,0.00,,,0.00,Wunderground v.1.15,2013-03-22 01:25:00,
2013-03-21 21:35:00,33.3,11.5,29.73,NNW,343,1.0,1.0,40,0.00,,,0.00,Wunderground v.1.15,2013-03-22 01:35:00,
2013-03-21 21:40:00,33.4,12.7,29.73,NNW,335,1.0,2.0,42,0.00,,,0.00,Wunderground v.1.15,2013-03-22 01:40:00,
2013-03-21 21:45:00,33.3,12.6,29.73,NNW,343,2.0,2.0,42,0.00,,,0.00,Wunderground v.1.15,2013-03-22 01:45:00,
2013-03-21 21:55:00,33.4,12.2,29.73,NNW,343,2.0,2.0,41,0.00,,,0.00,Wunderground v.1.15,2013-03-22 01:55:00,
2013-03-21 22:00:00,33.2,12.6,29.73,NNW,343,1.0,1.0,42,0.00,,,0.00,Wunderground v.1.15,2013-03-22 02:00:00,
2013-03-21 22:05:00,33.0,12.4,29.73,NNW,343,0.0,1.0,42,0.00,,,0.00,Wunderground v.1.15,2013-03-22 02:05:00,
2013-03-21 22:15:00,33.0,12.4,29.73,NNW,341,0.0,2.0,42,0.00,,,0.00,Wunderground v.1.15,2013-03-22 02:15:00,
2013-03-21 22:20:00,33.0,11.8,29.74,NNW,341,0.0,0.0,41,0.00,,,0.00,Wunderground v.1.15,2013-03-22 02:20:00,
2013-03-21 22:25:00,32.9,11.7,29.74,NNW,341,0.0,0.0,41,0.00,,,0.00,Wunderground v.1.15,2013-03-22 02:25:00,
2013-03-21 22:35:00,33.0,11.8,29.74,NNW,341,0.0,2.0,41,0.00,,,0.00,Wunderground v.1.15,2013-03-22 02:35:00,
2013-03-21 22:40:00,32.5,13.0,29.74,NNW,340,0.0,0.0,44,0.00,,,0.00,Wunderground v.1.15,2013-03-22 02:40:00,
2013-03-21 22:45:00,32.0,12.5,29.75,NNW,340,0.0,0.0,44,0.00,,,0.00,Wunderground v.1.15,2013-03-22 02:45:00,
2013-03-21 22:55:00,31.7,11.7,29.75,NNW,340,0.0,0.0,43,0.00,,,0.00,Wunderground v.1.15,2013-03-22 02:55:00,
2013-03-21 23:00:00,32.2,12.2,29.75,NNW,338,1.0,1.0,43,0.00,,,0.00,Wunderground v.1.15,2013-03-22 03:00:00,
2013-03-21 23:05:00,32.3,12.3,29.75,NNW,338,1.0,1.0,43,0.00,,,0.00,Wunderground v.1.15,2013-03-22 03:05:00,
2013-03-21 23:15:00,32.4,12.4,29.75,NNW,338,1.0,1.0,43,0.00,,,0.00,Wunderground v.1.15,2013-03-22 03:15:00,
2013-03-21 23:25:00,31.9,11.9,29.75,NNW,338,0.0,1.0,43,0.00,,,0.00,Wunderground v.1.15,2013-03-22 03:25:00,
2013-03-21 23:30:00,32.0,13.0,29.75,NNW,334,1.0,2.0,45,0.00,,,0.00,Wunderground v.1.15,2013-03-22 03:30:00,
2013-03-21 23:40:00,32.2,12.7,29.75,NNW,334,1.0,1.0,44,0.00,,,0.00,Wunderground v.1.15,2013-03-22 03:40:00,
2013-03-21 23:45:00,32.1,12.6,29.75,NNW,334,0.0,1.0,44,0.00,,,0.00,Wunderground v.1.15,2013-03-22 03:45:00,
2013-03-21 23:55:00,32.2,12.7,29.75,NNW,333,0.0,0.0,44,0.00,,,0.00,Wunderground v.1.15,2013-03-22 03:55:00,